Airport ID:KTME
Update Time (UTC):23/07/2019 13:33
Wind Speed (Knots):10
Wind Direction (Magnetic):350
Temperature (°C):26
Dew Point (°C):23.9
Humidity (%):87.3
Altimeter (inHg):30.03
Density Altitude (Feet):01700
Visibility (Miles):10
Clouds (Hundreds of feet):BKN015 BKN030 OVC036
Present Weather:
METAR:METAR KTME 231330Z AUTO 36009KT 10SM BKN014 BKN030 OVC036 26/24 A3003 RMK AO2

The data displayed is for advisory purposes only and is not to be used for flight planning or operations.

This page is not automatically refreshed. Reload the page to see current data.